Millsboro, Pennsylvania
Current Conditions -  °F | °C
As of 12:55 AM on Monday 20 Oct 2014 (Local Time) from KAFJ Reporting Station
Clear Clear  
Wind Chill: 34°   Ceiling: Unl
Heat Index: 34°   Visibility: 10mi
Dew Point: 32°   Wind: 0mph
Humidity: 93%   Direction: NA
Pressure: 30.09"   Gusts: NA
Location:  39.99°N, 79.99°W
Report Text: KAFJ 200455Z AUTO 00000KT 10SM CLR 01/00 A3009 RMK AO1
Loading
Personal Weather Stations






























Interactive Weather Map
Tropical Storm Tracking
New forecast layout! Learn more

10-Day Weather Forecast

Advertisements
Track Severe Weather on mobile